Time;durP1;ratioP1;P1;durP2;ratioP2;P2;SDS_P1;SDS_P2;PMS_P1;PMS_P2;Temp;Humidity;BMP_temperature;BMP_pressure;BME280_temperature;BME280_humidity;BME280_pressure;Samples;Min_cycle;Max_cycle;Signal;HPM_P1;HPM_P2
2023/04/30 00:00:23;;;;;;;10.90;9.10;;;;;;;12.83;71.71;99928.04;131472;1251;107478;-76
2023/04/30 00:03:49;;;;;;;9.70;8.00;;;;;;;12.74;72.78;99930.01;131292;1253;163874;-76
2023/04/30 00:06:54;;;;;;;10.00;8.20;;;;;;;12.65;72.95;99928.67;131443;1251;106757;-76
2023/04/30 00:10:00;;;;;;;10.70;8.90;;;;;;;12.62;73.26;99927.59;131484;1250;106818;-76
2023/04/30 00:13:05;;;;;;;10.80;9.10;;;;;;;12.61;72.97;99929.13;131412;1252;107218;-76
2023/04/30 00:16:11;;;;;;;13.20;9.30;;;;;;;12.64;73.47;99927.91;131472;1247;107356;-76
2023/04/30 00:19:16;;;;;;;12.00;9.70;;;;;;;12.65;73.58;99929.58;131432;1253;107493;-75
2023/04/30 00:22:22;;;;;;;12.30;9.70;;;;;;;12.63;74.28;99928.02;131390;1250;107869;-76
2023/04/30 00:25:27;;;;;;;11.60;9.00;;;;;;;12.60;74.00;99928.52;131431;1253;107568;-76
2023/04/30 00:28:33;;;;;;;12.00;10.40;;;;;;;12.63;75.08;99930.20;131421;1253;107407;-76
2023/04/30 00:31:38;;;;;;;14.10;11.70;;;;;;;12.61;75.64;99931.19;131473;1253;107182;-76
2023/04/30 00:34:44;;;;;;;14.60;12.20;;;;;;;12.56;76.08;99931.59;131284;1253;107560;-78
2023/04/30 00:37:50;;;;;;;17.00;12.90;;;;;;;12.53;78.63;99929.66;131415;1248;107311;-78
2023/04/30 00:40:56;;;;;;;16.00;12.30;;;;;;;12.45;77.70;99934.52;131128;1254;107517;-78
2023/04/30 00:44:02;;;;;;;18.50;14.20;;;;;;;12.45;79.08;99937.39;131150;1250;107255;-75
2023/04/30 00:47:07;;;;;;;17.60;14.40;;;;;;;12.40;80.03;99942.16;131376;1247;107510;-76
2023/04/30 00:50:14;;;;;;;19.50;15.40;;;;;;;12.37;79.78;99950.53;131244;1247;107243;-75
2023/04/30 00:53:21;;;;;;;21.50;16.70;;;;;;;12.34;80.44;99954.83;131104;1248;107230;-76
2023/04/30 00:56:26;;;;;;;21.80;16.60;;;;;;;12.27;82.83;99958.95;131244;1253;107516;-78
2023/04/30 00:59:33;;;;;;;22.50;18.10;;;;;;;12.23;81.77;99956.09;131258;1247;108702;-76
2023/04/30 01:02:38;;;;;;;22.40;18.60;;;;;;;12.22;81.99;99958.64;131352;1260;107499;-76
2023/04/30 01:05:44;;;;;;;24.80;20.10;;;;;;;12.21;82.07;99964.98;131302;1263;107149;-76
2023/04/30 01:08:51;;;;;;;27.30;21.10;;;;;;;12.15;83.84;99964.00;131175;1253;107570;-76
2023/04/30 01:12:07;;;;;;;25.60;20.40;;;;;;;12.01;85.38;99971.08;131232;1252;107237;-77
2023/04/30 01:15:19;;;;;;;25.30;19.60;;;;;;;11.87;86.00;99976.00;131184;1252;107561;-76
2023/04/30 01:18:28;;;;;;;21.80;17.70;;;;;;;11.77;85.62;99976.35;131229;1253;107500;-76
2023/04/30 01:21:40;;;;;;;20.10;17.80;;;;;;;11.69;86.67;99979.96;131130;1248;107477;-77
2023/04/30 01:25:07;;;;;;;20.90;17.90;;;;;;;11.54;89.37;99982.70;131435;1253;106851;-76
2023/04/30 01:28:16;;;;;;;23.00;18.90;;;;;;;11.43;88.52;99985.58;131258;1249;107543;-76
2023/04/30 01:31:24;;;;;;;22.90;17.80;;;;;;;11.31;88.71;99991.10;131372;1253;107507;-76
2023/04/30 01:34:29;;;;;;;21.80;17.30;;;;;;;11.20;89.91;99996.80;131290;1251;107316;-77
2023/04/30 01:37:42;;;;;;;23.80;19.10;;;;;;;11.13;88.72;99997.15;131153;1250;107512;-76
2023/04/30 01:40:53;;;;;;;23.90;20.10;;;;;;;11.08;88.66;100000.54;131184;1253;105517;-76
2023/04/30 01:44:11;;;;;;;25.10;18.60;;;;;;;11.02;89.85;100008.85;131200;1253;107530;-76
2023/04/30 01:47:27;;;;;;;23.50;18.30;;;;;;;10.96;88.68;100015.64;131167;1252;107514;-76
2023/04/30 01:50:43;;;;;;;23.50;19.90;;;;;;;10.93;90.24;100025.73;131238;1248;107353;-76
2023/04/30 01:53:49;;;;;;;22.50;19.30;;;;;;;10.90;89.56;100026.66;131268;1253;107506;-76
2023/04/30 01:57:02;;;;;;;27.50;21.10;;;;;;;10.88;87.99;100031.96;131184;1261;106455;-76
2023/04/30 02:00:16;;;;;;;27.60;20.00;;;;;;;10.80;89.82;100040.28;131055;1254;107453;-76
2023/04/30 02:03:22;;;;;;;26.80;20.60;;;;;;;10.70;88.14;100041.66;131262;1251;107330;-76
2023/04/30 02:06:28;;;;;;;25.70;20.60;;;;;;;10.62;89.18;100049.27;131164;1250;107398;-76
2023/04/30 02:09:34;;;;;;;28.80;21.10;;;;;;;10.51;89.68;100047.97;131203;1251;107634;-78
2023/04/30 02:12:40;;;;;;;27.10;19.90;;;;;;;10.40;88.74;100050.33;131441;1252;108669;-77
2023/04/30 02:15:46;;;;;;;27.40;20.00;;;;;;;10.34;88.89;100056.59;131265;1257;107250;-77
2023/04/30 02:18:51;;;;;;;26.50;20.20;;;;;;;10.30;88.46;100058.96;131147;1253;107343;-77
2023/04/30 02:21:57;;;;;;;24.70;18.90;;;;;;;10.29;88.18;100061.83;131132;1256;107498;-76
2023/04/30 02:25:03;;;;;;;26.40;20.50;;;;;;;10.30;87.03;100069.79;131215;1248;108628;-76
2023/04/30 02:28:08;;;;;;;32.70;22.10;;;;;;;10.28;87.23;100076.06;131051;1254;105745;-76
2023/04/30 02:31:14;;;;;;;26.00;20.50;;;;;;;10.21;86.47;100080.10;131303;1253;107493;-76
2023/04/30 02:34:19;;;;;;;30.60;21.20;;;;;;;10.20;86.69;100082.97;131315;1253;107503;-76
2023/04/30 02:37:25;;;;;;;23.20;16.30;;;;;;;10.16;86.23;100090.20;131357;1252;107531;-76
2023/04/30 02:40:30;;;;;;;21.30;16.90;;;;;;;10.12;86.53;100089.90;131382;1253;107514;-76
2023/04/30 02:43:36;;;;;;;24.60;18.00;;;;;;;10.11;85.84;100092.10;131447;1250;107509;-76
2023/04/30 02:46:41;;;;;;;23.80;17.80;;;;;;;10.11;85.27;100098.15;131512;1250;107252;-76
2023/04/30 02:49:47;;;;;;;21.60;17.40;;;;;;;10.10;84.71;100100.08;131348;1253;107558;-76
2023/04/30 02:52:52;;;;;;;21.50;15.90;;;;;;;10.03;84.62;100098.39;131422;1253;107225;-76
2023/04/30 02:55:58;;;;;;;20.30;14.90;;;;;;;9.99;83.98;100106.48;131434;1247;107537;-76
2023/04/30 02:59:04;;;;;;;21.00;15.30;;;;;;;9.97;83.94;100109.17;131266;1253;106552;-76
2023/04/30 03:02:09;;;;;;;19.50;15.60;;;;;;;9.97;84.16;100111.17;131133;1254;107567;-76
2023/04/30 03:05:15;;;;;;;22.10;15.50;;;;;;;9.93;84.81;100113.68;131156;1254;108658;-76
2023/04/30 03:08:21;;;;;;;18.80;13.20;;;;;;;9.86;84.79;100120.52;131314;1263;107567;-76
2023/04/30 03:11:26;;;;;;;20.50;15.30;;;;;;;9.81;84.90;100129.14;131171;1256;107205;-75
2023/04/30 03:14:32;;;;;;;20.40;14.50;;;;;;;9.74;85.60;100131.10;131287;1248;107377;-76
2023/04/30 03:17:38;;;;;;;20.70;14.60;;;;;;;9.66;85.34;100137.23;131213;1248;107501;-76
2023/04/30 03:20:43;;;;;;;19.40;13.90;;;;;;;9.58;84.95;100139.65;131174;1251;107573;-76
2023/04/30 03:23:49;;;;;;;16.30;12.00;;;;;;;9.54;84.56;100144.23;131318;1251;107488;-76
2023/04/30 03:26:54;;;;;;;17.30;12.90;;;;;;;9.55;83.96;100142.41;131292;1247;107366;-75
2023/04/30 03:30:00;;;;;;;19.00;13.80;;;;;;;9.60;83.76;100146.59;131336;1251;107517;-75
2023/04/30 03:33:05;;;;;;;15.20;12.40;;;;;;;9.62;83.37;100150.98;131346;1250;107622;-76
2023/04/30 03:36:11;;;;;;;16.40;13.70;;;;;;;9.65;83.40;100154.92;131326;1253;107562;-76
2023/04/30 03:39:17;;;;;;;16.20;12.40;;;;;;;9.62;83.26;100162.67;131175;1253;107220;-75
2023/04/30 03:42:23;;;;;;;17.90;12.40;;;;;;;9.58;82.92;100165.91;131472;1253;107582;-75
2023/04/30 03:45:28;;;;;;;15.60;12.10;;;;;;;9.54;82.74;100169.36;131359;1252;107428;-75
2023/04/30 03:48:34;;;;;;;16.80;12.20;;;;;;;9.51;82.57;100173.14;131376;1247;107649;-76
2023/04/30 03:51:40;;;;;;;15.80;12.40;;;;;;;9.51;82.45;100184.42;131392;1248;107453;-76
2023/04/30 03:54:46;;;;;;;17.30;12.00;;;;;;;9.52;82.41;100188.03;131269;1253;107695;-75
2023/04/30 03:57:53;;;;;;;17.00;11.50;;;;;;;9.52;82.20;100192.19;131307;1248;107302;-76
2023/04/30 04:00:58;;;;;;;15.60;11.20;;;;;;;9.50;82.00;100195.45;131389;1253;106707;-76
2023/04/30 04:04:04;;;;;;;12.50;9.70;;;;;;;9.48;82.08;100201.85;131149;1253;107232;-76
2023/04/30 04:07:10;;;;;;;14.20;11.10;;;;;;;9.48;82.04;100203.26;131194;1253;107454;-76
2023/04/30 04:10:16;;;;;;;14.80;10.90;;;;;;;9.48;82.01;100209.04;131367;1248;107373;-76
2023/04/30 04:13:22;;;;;;;17.70;12.70;;;;;;;9.45;81.65;100210.67;131562;1253;107494;-75
2023/04/30 04:16:28;;;;;;;15.20;12.50;;;;;;;9.40;81.22;100212.50;131508;1253;105643;-76
2023/04/30 04:19:33;;;;;;;39.70;24.20;;;;;;;9.40;81.27;100215.23;131595;1250;107613;-76
2023/04/30 04:22:39;;;;;;;16.50;11.10;;;;;;;9.34;81.10;100219.89;131272;1252;107547;-77
2023/04/30 04:25:48;;;;;;;22.90;15.90;;;;;;;9.33;81.16;100221.70;131213;1250;107615;-76
2023/04/30 04:28:54;;;;;;;28.10;19.00;;;;;;;9.35;81.26;100221.55;131288;1250;107484;-76
2023/04/30 04:32:01;;;;;;;19.80;13.80;;;;;;;9.40;80.94;100227.46;131355;1253;105991;-76
2023/04/30 04:35:09;;;;;;;17.90;13.90;;;;;;;9.38;80.82;100229.29;131382;1248;107337;-76
2023/04/30 04:38:14;;;;;;;24.70;18.40;;;;;;;9.36;80.74;100236.89;131226;1263;107489;-76
2023/04/30 04:41:21;;;;;;;15.80;12.00;;;;;;;9.33;80.60;100242.11;131096;1253;107250;-76
2023/04/30 04:44:27;;;;;;;24.00;18.20;;;;;;;9.35;80.59;100249.10;131193;1253;107524;-77
2023/04/30 04:47:33;;;;;;;48.80;30.50;;;;;;;9.40;80.61;100256.92;131299;1248;107412;-76
2023/04/30 04:50:39;;;;;;;21.20;14.70;;;;;;;9.43;80.50;100264.32;131199;1248;107262;-76
2023/04/30 04:53:45;;;;;;;24.20;18.30;;;;;;;9.41;80.08;100273.31;131306;1253;107451;-77
2023/04/30 04:56:51;;;;;;;18.30;14.20;;;;;;;9.41;80.14;100275.87;131127;1254;107243;-77
2023/04/30 04:59:57;;;;;;;19.80;13.80;;;;;;;9.36;79.99;100279.48;131220;1247;107434;-77
2023/04/30 05:03:02;;;;;;;17.70;14.00;;;;;;;9.39;79.88;100281.38;131229;1253;107343;-76
2023/04/30 05:06:08;;;;;;;20.70;14.20;;;;;;;9.46;79.90;100286.08;131354;1251;107377;-77
2023/04/30 05:09:14;;;;;;;14.70;12.60;;;;;;;9.51;79.46;100288.80;131392;1252;107943;-77
2023/04/30 05:12:20;;;;;;;15.70;12.10;;;;;;;9.54;79.57;100298.83;131388;1253;107544;-77
2023/04/30 05:15:25;;;;;;;15.00;11.50;;;;;;;9.53;78.96;100310.41;131311;1252;107533;-76
2023/04/30 05:18:31;;;;;;;13.80;10.60;;;;;;;9.49;79.22;100313.48;131332;1253;107212;-76
2023/04/30 05:21:36;;;;;;;14.10;10.00;;;;;;;9.38;78.89;100319.76;132106;1253;107502;-78
2023/04/30 05:24:42;;;;;;;15.10;10.90;;;;;;;9.23;78.83;100325.27;131238;1253;107262;-77
2023/04/30 05:27:47;;;;;;;15.00;10.40;;;;;;;9.15;78.53;100327.27;131246;1253;106400;-76
2023/04/30 05:30:53;;;;;;;14.20;10.40;;;;;;;9.18;79.04;100337.67;131436;1253;108825;-76
2023/04/30 05:33:59;;;;;;;13.30;10.20;;;;;;;9.34;78.70;100338.09;131587;1247;107520;-76
2023/04/30 05:37:04;;;;;;;12.50;9.40;;;;;;;9.51;78.95;100340.28;131460;1251;107374;-76
2023/04/30 05:40:12;;;;;;;15.10;9.90;;;;;;;9.69;78.07;100345.82;131392;1250;107547;-76
2023/04/30 05:43:17;;;;;;;14.40;9.90;;;;;;;9.78;77.11;100349.75;131280;1254;107265;-76
2023/04/30 05:46:23;;;;;;;12.50;9.60;;;;;;;9.90;76.86;100351.15;131251;1253;106289;-76
2023/04/30 05:49:29;;;;;;;14.00;9.80;;;;;;;9.95;74.91;100359.40;131406;1253;107510;-77
2023/04/30 05:52:34;;;;;;;12.00;8.80;;;;;;;9.90;74.67;100362.31;131526;1253;107562;-75
2023/04/30 05:55:40;;;;;;;12.30;8.60;;;;;;;9.96;75.37;100364.95;131393;1253;105677;-74
2023/04/30 05:58:45;;;;;;;20.50;13.30;;;;;;;10.06;74.87;100363.45;131301;1253;107517;-74
2023/04/30 06:01:51;;;;;;;16.70;12.50;;;;;;;10.13;73.62;100364.23;131425;1253;107883;-74
2023/04/30 06:04:57;;;;;;;12.20;9.90;;;;;;;10.09;72.73;100371.02;131321;1250;107240;-75
2023/04/30 06:08:02;;;;;;;13.10;8.90;;;;;;;10.06;72.87;100372.57;131248;1247;107518;-73
2023/04/30 06:11:08;;;;;;;14.80;10.10;;;;;;;10.08;72.53;100375.70;131252;1257;107234;-74
2023/04/30 06:14:13;;;;;;;11.10;7.50;;;;;;;10.17;73.79;100371.65;131177;1262;107131;-74
2023/04/30 06:17:19;;;;;;;13.70;8.60;;;;;;;10.34;73.17;100379.88;131291;1248;107424;-74
2023/04/30 06:20:26;;;;;;;13.60;9.60;;;;;;;10.42;71.73;100380.11;131261;1253;106635;-74
2023/04/30 06:23:31;;;;;;;17.60;8.60;;;;;;;10.37;70.39;100385.60;131361;1254;107514;-75
2023/04/30 06:26:37;;;;;;;12.10;7.10;;;;;;;10.39;71.36;100388.44;131472;1247;106509;-75
2023/04/30 06:29:42;;;;;;;10.20;6.60;;;;;;;10.48;71.70;100383.86;131307;1253;107493;-77
2023/04/30 06:32:48;;;;;;;9.70;6.10;;;;;;;10.56;71.69;100384.08;131196;1253;107500;-77
2023/04/30 06:35:54;;;;;;;12.70;7.80;;;;;;;10.64;71.63;100378.85;131269;1252;107525;-76
2023/04/30 06:39:00;;;;;;;11.20;6.50;;;;;;;10.67;67.93;100385.02;131237;1253;106050;-76
2023/04/30 06:42:05;;;;;;;14.70;9.30;;;;;;;10.60;67.80;100384.11;131272;1253;107550;-77
2023/04/30 06:45:14;;;;;;;7.90;5.20;;;;;;;10.58;68.36;100391.00;131165;1250;107338;-76
2023/04/30 06:48:19;;;;;;;10.70;6.00;;;;;;;10.60;67.10;100396.66;131421;1252;107525;-76
2023/04/30 06:51:25;;;;;;;10.70;6.10;;;;;;;10.55;66.85;100395.39;131408;1251;107375;-76
2023/04/30 06:54:31;;;;;;;11.80;7.80;;;;;;;10.54;66.32;100399.38;131297;1254;107411;-77
2023/04/30 06:57:37;;;;;;;8.70;5.60;;;;;;;10.56;65.44;100402.23;131397;1247;106576;-77
2023/04/30 07:00:42;;;;;;;8.30;5.50;;;;;;;10.61;65.45;100402.87;131541;1248;107343;-77
2023/04/30 07:03:48;;;;;;;7.30;4.30;;;;;;;10.69;66.53;100410.28;131272;1253;107908;-76
2023/04/30 07:06:53;;;;;;;8.40;5.50;;;;;;;10.71;63.95;100409.91;131252;1252;107502;-76
2023/04/30 07:09:59;;;;;;;8.50;4.60;;;;;;;10.73;64.91;100409.84;131169;1253;106478;-76
2023/04/30 07:13:04;;;;;;;7.50;5.00;;;;;;;10.80;64.30;100408.13;131309;1252;107512;-77
2023/04/30 07:16:10;;;;;;;7.20;4.70;;;;;;;10.86;62.85;100409.13;131461;1250;107376;-77
2023/04/30 07:19:16;;;;;;;8.40;4.90;;;;;;;10.87;61.93;100417.23;131316;1248;107235;-76
2023/04/30 07:22:21;;;;;;;9.00;4.40;;;;;;;10.81;60.10;100421.20;131464;1252;107641;-77
2023/04/30 07:25:27;;;;;;;7.70;5.00;;;;;;;10.80;61.36;100423.02;131406;1254;107481;-75
2023/04/30 07:28:32;;;;;;;7.20;3.60;;;;;;;10.77;59.44;100421.89;131440;1261;107542;-76
2023/04/30 07:31:38;;;;;;;6.60;3.60;;;;;;;10.81;61.17;100419.80;131227;1253;106185;-78
2023/04/30 07:34:44;;;;;;;6.10;3.10;;;;;;;10.87;62.12;100417.16;131318;1254;107363;-81
2023/04/30 07:37:49;;;;;;;8.00;3.60;;;;;;;11.03;61.48;100423.85;131280;1247;107508;-76
2023/04/30 07:40:55;;;;;;;11.10;6.40;;;;;;;11.08;60.08;100422.95;131224;1253;107569;-78
2023/04/30 07:44:00;;;;;;;11.30;5.70;;;;;;;11.14;60.07;100417.19;131242;1248;107432;-75
2023/04/30 07:47:06;;;;;;;8.20;3.60;;;;;;;11.18;58.32;100430.69;131461;1251;107487;-75
2023/04/30 07:50:13;;;;;;;5.80;3.20;;;;;;;11.18;58.74;100428.23;131500;1254;107417;-75
2023/04/30 07:53:19;;;;;;;6.10;3.10;;;;;;;11.20;59.19;100422.52;131446;1263;107206;-75
2023/04/30 07:56:24;;;;;;;7.80;3.10;;;;;;;11.17;58.42;100424.16;131488;1253;107449;-75
2023/04/30 07:59:30;;;;;;;7.40;4.20;;;;;;;11.28;58.82;100434.58;131576;1262;107243;-76
2023/04/30 08:02:36;;;;;;;10.80;5.20;;;;;;;11.26;56.79;100434.70;131393;1254;107498;-76
2023/04/30 08:05:41;;;;;;;6.80;3.60;;;;;;;11.30;57.98;100433.99;131414;1253;107310;-77
2023/04/30 08:08:47;;;;;;;7.10;3.30;;;;;;;11.31;56.14;100444.55;131305;1251;107517;-76
2023/04/30 08:11:52;;;;;;;10.10;5.60;;;;;;;11.21;56.00;100443.76;131407;1252;107529;-76
2023/04/30 08:15:03;;;;;;;9.70;5.70;;;;;;;11.27;56.25;100451.84;131298;1253;105667;-76
2023/04/30 08:18:09;;;;;;;6.90;4.00;;;;;;;11.27;55.72;100452.40;131512;1253;106528;-76
2023/04/30 08:21:16;;;;;;;11.10;5.70;;;;;;;11.24;52.26;100458.98;131388;1254;107510;-77
2023/04/30 08:24:22;;;;;;;11.50;6.80;;;;;;;11.24;52.38;100465.39;131477;1260;107205;-76
2023/04/30 08:27:28;;;;;;;8.50;5.40;;;;;;;11.23;52.40;100469.73;131447;1253;107366;-76
2023/04/30 08:30:33;;;;;;;6.80;4.00;;;;;;;11.18;52.57;100467.56;131403;1252;108459;-78
2023/04/30 08:33:39;;;;;;;11.20;6.70;;;;;;;11.20;54.67;100459.34;131379;1253;107384;-77
2023/04/30 08:36:45;;;;;;;6.40;3.80;;;;;;;11.27;53.06;100455.84;131263;1254;108566;-76
2023/04/30 08:39:51;;;;;;;8.10;3.80;;;;;;;11.36;55.67;100452.08;131344;1254;107210;-78
2023/04/30 08:43:05;;;;;;;7.20;4.10;;;;;;;11.53;54.75;100461.27;131369;1253;107512;-76
2023/04/30 08:46:11;;;;;;;7.00;3.30;;;;;;;11.54;52.36;100467.23;131443;1262;107544;-77
2023/04/30 08:49:17;;;;;;;9.20;5.10;;;;;;;11.55;53.45;100468.52;131520;1252;107289;-75
2023/04/30 08:52:26;;;;;;;6.70;4.10;;;;;;;11.57;52.60;100468.86;131254;1252;107978;-77
2023/04/30 08:55:36;;;;;;;8.40;3.30;;;;;;;11.57;52.03;100474.58;131354;1253;107512;-77
2023/04/30 08:58:42;;;;;;;5.20;3.00;;;;;;;11.57;50.88;100472.80;131382;1257;107390;-76
2023/04/30 09:01:48;;;;;;;6.70;3.20;;;;;;;11.59;51.22;100476.44;131299;1254;107324;-77
2023/04/30 09:04:54;;;;;;;5.40;3.40;;;;;;;11.71;51.99;100479.40;131233;1254;107607;-77
2023/04/30 09:07:59;;;;;;;5.70;3.00;;;;;;;11.75;49.74;100476.95;131167;1253;107416;-76
2023/04/30 09:11:22;;;;;;;5.20;2.70;;;;;;;11.80;48.88;100480.06;131288;1253;107390;-78
2023/04/30 09:14:28;;;;;;;4.20;2.40;;;;;;;11.80;48.31;100487.56;131748;1253;107425;-77
2023/04/30 09:17:34;;;;;;;3.70;2.30;;;;;;;11.77;48.98;100478.78;131225;1253;107494;-77
2023/04/30 09:20:55;;;;;;;4.20;1.70;;;;;;;11.82;46.38;100487.05;131319;1254;107918;-76
2023/04/30 09:24:02;;;;;;;4.40;1.80;;;;;;;11.78;45.40;100485.23;131191;1261;107583;-77
2023/04/30 09:27:17;;;;;;;3.20;2.00;;;;;;;11.86;45.65;100481.48;131454;1251;107963;-77
2023/04/30 09:30:33;;;;;;;8.70;4.30;;;;;;;11.96;48.29;100482.27;131412;1248;107425;-77
2023/04/30 09:33:48;;;;;;;4.10;2.10;;;;;;;12.10;47.28;100491.81;131559;1253;106682;-76
2023/04/30 09:36:57;;;;;;;4.90;3.10;;;;;;;12.06;45.23;100492.09;131454;1253;107522;-76
2023/04/30 09:40:03;;;;;;;5.00;2.40;;;;;;;11.98;45.66;100491.83;131625;1253;107444;-76
2023/04/30 09:43:09;;;;;;;5.20;2.40;;;;;;;12.04;44.11;100493.73;131381;1253;107508;-76
2023/04/30 09:46:15;;;;;;;6.90;4.50;;;;;;;12.15;46.42;100494.89;131315;1261;107484;-76
2023/04/30 09:49:21;;;;;;;3.60;1.80;;;;;;;12.27;47.10;100490.48;131505;1253;105709;-76
2023/04/30 09:52:27;;;;;;;7.60;3.70;;;;;;;12.35;43.04;100499.06;131274;1255;107517;-76
2023/04/30 09:55:34;;;;;;;5.80;2.20;;;;;;;12.25;42.87;100503.14;131375;1263;107610;-77
2023/04/30 09:58:43;;;;;;;5.70;2.90;;;;;;;12.22;43.37;100496.67;131253;1261;107461;-75
2023/04/30 10:01:50;;;;;;;7.80;4.50;;;;;;;12.27;43.15;100497.14;131641;1253;107537;-76
2023/04/30 10:04:58;;;;;;;7.10;4.60;;;;;;;12.26;41.43;100493.59;131223;1253;106957;-76
2023/04/30 10:08:04;;;;;;;3.60;1.80;;;;;;;12.31;42.92;100492.62;131172;1254;107281;-75
2023/04/30 10:11:15;;;;;;;6.00;3.10;;;;;;;12.39;43.71;100488.30;131177;1263;106691;-76
2023/04/30 10:14:21;;;;;;;4.80;1.70;;;;;;;12.43;39.59;100491.11;131177;1254;107454;-76
2023/04/30 10:17:30;;;;;;;10.10;4.20;;;;;;;12.50;41.39;100489.89;131138;1254;107218;-76
2023/04/30 10:20:37;;;;;;;20.60;7.60;;;;;;;12.52;42.72;100489.98;131299;1256;106675;-76
2023/04/30 10:23:44;;;;;;;13.50;6.10;;;;;;;12.51;42.34;100487.07;131284;1254;107418;-77
2023/04/30 10:26:50;;;;;;;12.40;7.00;;;;;;;12.58;41.85;100488.13;131262;1254;107223;-77
2023/04/30 10:29:57;;;;;;;5.20;3.00;;;;;;;12.64;42.24;100495.02;131310;1254;107204;-76
2023/04/30 10:33:12;;;;;;;10.10;6.90;;;;;;;12.67;42.98;100492.08;131413;1254;107263;-77
2023/04/30 10:36:26;;;;;;;6.10;2.90;;;;;;;12.76;43.65;100492.90;131464;1254;107412;-77
2023/04/30 10:39:33;;;;;;;9.40;5.40;;;;;;;12.80;41.84;100496.18;131366;1257;107281;-76
2023/04/30 10:42:45;;;;;;;6.20;4.30;;;;;;;12.79;42.60;100489.23;131305;1251;106997;-77
2023/04/30 10:45:51;;;;;;;3.70;1.90;;;;;;;12.79;41.28;100492.96;131092;1251;107414;-78
2023/04/30 10:48:57;;;;;;;4.60;2.80;;;;;;;12.76;42.74;100491.83;131228;1253;106897;-76
2023/04/30 10:52:04;;;;;;;4.30;2.90;;;;;;;12.82;42.72;100488.98;131201;1253;107483;-77
2023/04/30 10:55:11;;;;;;;3.60;2.20;;;;;;;12.88;42.36;100494.34;131192;1248;107500;-78
2023/04/30 10:58:33;;;;;;;4.00;1.90;;;;;;;12.81;42.83;100488.63;131215;1253;107424;-77
2023/04/30 11:01:50;;;;;;;;;;;;;;;12.78;42.11;100494.52;131370;1253;105532;-78
2023/04/30 11:05:15;;;;;;;6.40;2.80;;;;;;;12.83;42.14;100487.53;131607;1254;107951;-79
2023/04/30 11:08:32;;;;;;;4.80;2.10;;;;;;;12.92;43.56;100482.77;131519;1247;107627;-78
2023/04/30 11:11:37;;;;;;;3.90;2.20;;;;;;;12.95;43.05;100483.75;132536;1250;107533;-78
2023/04/30 11:14:45;;;;;;;3.70;2.30;;;;;;;13.08;43.66;100484.52;131385;1261;107541;-78
2023/04/30 11:17:51;;;;;;;2.90;1.70;;;;;;;13.02;41.83;100485.45;131328;1253;108107;-77
2023/04/30 11:20:58;;;;;;;5.10;2.70;;;;;;;12.93;42.61;100483.98;131523;1252;107616;-77
2023/04/30 11:24:06;;;;;;;5.00;1.80;;;;;;;12.92;42.05;100493.30;131222;1261;107534;-78
2023/04/30 11:27:14;;;;;;;4.10;2.10;;;;;;;12.97;43.12;100491.89;131329;1262;106260;-77
2023/04/30 11:30:20;;;;;;;4.00;2.30;;;;;;;13.06;43.23;100486.93;131618;1253;107493;-78
2023/04/30 11:33:27;;;;;;;5.90;3.00;;;;;;;13.12;42.61;100490.09;131500;1254;107535;-77
2023/04/30 11:36:34;;;;;;;4.80;2.20;;;;;;;13.11;40.34;100497.74;131381;1253;107380;-79
2023/04/30 11:39:41;;;;;;;3.00;1.60;;;;;;;13.15;41.77;100500.20;131454;1264;107637;-77
2023/04/30 11:42:48;;;;;;;3.80;1.50;;;;;;;13.25;42.02;100496.11;131283;1254;107363;-77
2023/04/30 11:46:09;;;;;;;8.00;5.10;;;;;;;13.29;41.33;100503.20;131386;1253;107628;-77
2023/04/30 11:49:14;;;;;;;7.50;3.30;;;;;;;13.40;42.47;100505.83;131274;1252;107825;-76
2023/04/30 11:52:26;;;;;;;4.60;2.30;;;;;;;13.40;43.08;100512.09;131250;1252;107510;-76
2023/04/30 11:55:32;;;;;;;6.80;3.80;;;;;;;13.37;42.83;100501.79;131377;1253;106667;-77
2023/04/30 11:58:39;;;;;;;5.90;2.70;;;;;;;13.41;43.47;100498.31;131297;1252;107488;-77
2023/04/30 12:01:44;;;;;;;6.00;2.50;;;;;;;13.51;42.35;100508.14;131313;1247;107354;-76
2023/04/30 12:04:50;;;;;;;6.00;2.80;;;;;;;13.50;42.10;100513.64;131095;1254;181607;-76
2023/04/30 12:08:00;;;;;;;5.50;3.10;;;;;;;13.49;42.59;100511.39;131146;1254;107524;-76
2023/04/30 12:11:06;;;;;;;4.70;2.30;;;;;;;13.53;42.16;100508.36;131298;1261;107545;-78
2023/04/30 12:14:13;;;;;;;5.90;3.00;;;;;;;13.57;43.43;100503.75;131139;1255;107440;-78
2023/04/30 12:17:32;;;;;;;3.30;2.20;;;;;;;13.63;41.51;100501.19;131235;1257;107223;-77
2023/04/30 12:20:38;;;;;;;4.80;3.00;;;;;;;13.67;42.19;100501.29;131412;1248;107279;-77
2023/04/30 12:23:45;;;;;;;5.10;2.20;;;;;;;13.68;40.84;100511.17;131290;1253;107478;-78
2023/04/30 12:26:58;;;;;;;4.20;2.00;;;;;;;13.68;42.38;100498.30;131415;1260;107265;-78
2023/04/30 12:30:14;;;;;;;4.80;2.30;;;;;;;13.84;42.37;100493.86;131082;1258;107594;-81
2023/04/30 12:33:20;;;;;;;5.90;2.20;;;;;;;13.94;41.26;100494.57;131109;1251;107626;-78
2023/04/30 12:36:33;;;;;;;3.30;1.70;;;;;;;13.96;40.32;100493.99;131243;1253;107602;-77
2023/04/30 12:39:39;;;;;;;4.00;2.40;;;;;;;13.92;41.50;100495.81;131260;1254;107320;-79
2023/04/30 12:42:48;;;;;;;3.00;1.90;;;;;;;13.95;41.87;100487.33;131137;1247;107457;-79
2023/04/30 12:45:56;;;;;;;5.20;3.70;;;;;;;13.95;41.49;100486.52;131415;1254;107281;-79
2023/04/30 12:49:02;;;;;;;5.70;2.60;;;;;;;13.95;40.93;100486.42;131503;1252;109298;-79
2023/04/30 12:52:11;;;;;;;4.10;2.30;;;;;;;13.89;40.46;100487.94;131407;1254;107493;-79
2023/04/30 12:55:22;;;;;;;7.60;2.10;;;;;;;13.88;41.47;100486.46;131358;1248;107456;-77
2023/04/30 12:58:32;;;;;;;4.90;2.20;;;;;;;13.97;41.39;100488.27;131253;1249;107407;-77
2023/04/30 13:01:46;;;;;;;4.00;2.10;;;;;;;13.97;40.42;100497.48;131309;1263;107460;-79
2023/04/30 13:04:53;;;;;;;2.40;1.50;;;;;;;13.86;40.44;100490.91;131359;1255;107415;-77
2023/04/30 13:08:05;;;;;;;4.40;2.00;;;;;;;13.90;40.87;100493.02;131233;1261;105924;-77
2023/04/30 13:11:11;;;;;;;3.70;1.90;;;;;;;13.82;38.90;100499.47;131363;1254;107652;-78
2023/04/30 13:14:17;;;;;;;3.00;1.90;;;;;;;13.72;38.58;100497.06;131346;1253;107531;-78
2023/04/30 13:17:23;;;;;;;2.90;1.40;;;;;;;13.72;39.46;100489.95;131348;1248;107520;-77
2023/04/30 13:20:28;;;;;;;3.30;1.80;;;;;;;13.81;40.45;100488.50;131313;1254;107334;-77
2023/04/30 13:23:34;;;;;;;2.70;1.50;;;;;;;13.89;40.61;100484.89;131260;1255;107467;-76
2023/04/30 13:26:40;;;;;;;4.00;1.60;;;;;;;13.87;39.08;100488.21;131478;1248;107477;-79
2023/04/30 13:29:46;;;;;;;4.20;2.20;;;;;;;13.88;40.21;100487.36;131539;1255;107436;-77
2023/04/30 13:32:52;;;;;;;5.80;2.60;;;;;;;13.88;39.84;100494.34;131347;1248;108482;-77
2023/04/30 13:35:58;;;;;;;6.00;3.60;;;;;;;13.91;39.46;100486.63;131383;1254;107444;-77
2023/04/30 13:39:05;;;;;;;9.10;5.80;;;;;;;13.89;38.97;100499.43;131254;1254;107516;-76
2023/04/30 13:42:11;;;;;;;8.80;5.60;;;;;;;13.82;39.26;100490.82;131462;1254;107245;-79
2023/04/30 13:45:16;;;;;;;12.60;7.60;;;;;;;13.82;39.83;100490.52;131317;1254;107535;-77
2023/04/30 13:48:23;;;;;;;21.00;13.60;;;;;;;13.85;38.97;100497.17;131441;1253;107482;-77
2023/04/30 13:51:30;;;;;;;17.10;9.30;;;;;;;13.78;38.86;100497.96;131381;1253;107541;-77
2023/04/30 13:54:36;;;;;;;4.60;2.70;;;;;;;13.70;39.32;100495.69;131210;1254;107435;-78
2023/04/30 13:57:41;;;;;;;4.50;2.60;;;;;;;13.78;39.98;100489.35;131430;1254;107511;-78
2023/04/30 14:00:47;;;;;;;7.40;4.30;;;;;;;13.87;39.63;100489.41;131435;1254;107507;-76
2023/04/30 14:03:53;;;;;;;7.40;4.90;;;;;;;13.87;38.49;100498.89;131342;1254;107525;-76